createdAt,value
2023-03-23T00:00:02.309Z,72.65
2023-03-23T00:01:02.211Z,72.55
2023-03-23T00:01:29.740Z,72.45
2023-03-23T00:03:01.670Z,72.65
2023-03-23T00:04:02.350Z,72.34
2023-03-23T00:04:29.673Z,72.45
2023-03-23T00:05:29.780Z,72.45
2023-03-23T00:06:29.758Z,72.45
2023-03-23T00:07:29.628Z,72.04
2023-03-23T00:08:29.624Z,72.65
2023-03-23T00:09:29.610Z,72.25
2023-03-23T00:10:29.616Z,73.06
2023-03-23T00:11:29.598Z,73.06
2023-03-23T00:12:30.914Z,73.57
2023-03-23T00:13:29.620Z,73.60
2023-03-23T00:14:29.627Z,72.99
2023-03-23T00:15:29.547Z,72.69
2023-03-23T00:16:29.628Z,73.40
2023-03-23T00:17:29.572Z,73.10
2023-03-23T00:18:29.572Z,73.30
2023-03-23T00:19:29.571Z,72.48
2023-03-23T00:20:29.559Z,73.40
2023-03-23T00:21:29.560Z,73.16
2023-03-23T00:22:29.546Z,73.71
2023-03-23T00:23:29.528Z,73.71
2023-03-23T00:24:29.498Z,73.60
2023-03-23T00:25:29.530Z,73.40
2023-03-23T00:26:29.507Z,73.30
2023-03-23T00:27:30.514Z,74.01
2023-03-23T00:28:29.539Z,74.01
2023-03-23T00:29:29.487Z,73.80
2023-03-23T00:30:29.458Z,73.71
2023-03-23T00:31:29.450Z,74.01
2023-03-23T00:32:29.491Z,73.40
2023-03-23T00:33:29.515Z,73.40
2023-03-23T00:34:29.437Z,73.40
2023-03-23T00:35:29.464Z,73.60
2023-03-23T00:36:29.419Z,73.10
2023-03-23T00:37:29.439Z,73.50
2023-03-23T00:38:29.407Z,73.10
2023-03-23T00:39:29.376Z,72.99
2023-03-23T00:40:29.420Z,72.89
2023-03-23T00:41:29.375Z,73.16
2023-03-23T00:42:29.368Z,73.10
2023-03-23T00:43:29.377Z,71.94
2023-03-23T00:44:29.420Z,72.34
2023-03-23T00:45:29.350Z,72.25
2023-03-23T00:46:29.368Z,72.65
2023-03-23T00:47:29.342Z,72.99
2023-03-23T00:48:29.342Z,72.89
2023-03-23T00:49:29.378Z,72.28
2023-03-23T00:50:33.831Z,72.04
2023-03-23T00:51:31.313Z,71.84
2023-03-23T00:52:29.269Z,71.94
2023-03-23T00:53:29.283Z,72.04
2023-03-23T00:54:29.290Z,71.91
2023-03-23T00:55:29.251Z,72.45
2023-03-23T00:56:29.265Z,71.84
2023-03-23T00:57:29.237Z,72.04
2023-03-23T00:58:29.283Z,72.45
2023-03-23T00:59:29.243Z,71.73
2023-03-23T01:00:29.261Z,72.25
2023-03-23T01:01:29.236Z,72.55
2023-03-23T01:02:29.220Z,72.55
2023-03-23T01:03:29.220Z,73.16
2023-03-23T01:04:29.207Z,72.65
2023-03-23T01:05:29.191Z,72.45
2023-03-23T01:06:29.187Z,73.16
2023-03-23T01:07:29.148Z,72.86
2023-03-23T01:08:29.177Z,73.06
2023-03-23T01:09:29.144Z,73.16
2023-03-23T01:10:29.220Z,73.06
2023-03-23T01:11:29.238Z,73.16
2023-03-23T01:12:29.154Z,73.60
2023-03-23T01:13:29.083Z,73.60
2023-03-23T01:14:29.097Z,72.25
2023-03-23T01:15:29.195Z,73.06
2023-03-23T01:16:29.107Z,72.65
2023-03-23T01:17:29.102Z,72.25
2023-03-23T01:18:33.916Z,72.14
2023-03-23T01:19:29.112Z,71.94
2023-03-23T01:20:29.038Z,71.50
2023-03-23T01:21:29.100Z,71.60
2023-03-23T01:22:29.029Z,71.73
2023-03-23T01:23:29.118Z,71.43
2023-03-23T01:24:29.134Z,71.02
2023-03-23T01:25:29.042Z,70.79
2023-03-23T01:26:29.132Z,71.40
2023-03-23T01:27:29.028Z,71.40
2023-03-23T01:28:28.990Z,71.60
2023-03-23T01:29:28.991Z,71.60
2023-03-23T01:30:29.018Z,71.64
2023-03-23T01:31:28.973Z,71.60
2023-03-23T01:32:28.932Z,71.40
2023-03-23T01:33:29.026Z,71.40
2023-03-23T01:34:28.949Z,71.91
2023-03-23T01:37:26.649Z,72.82
2023-03-23T01:38:34.660Z,73.67
2023-03-23T01:39:26.645Z,73.97
2023-03-23T01:40:34.177Z,73.67
2023-03-23T01:41:26.605Z,74.32
2023-03-23T01:42:34.194Z,73.47
2023-03-23T01:43:34.296Z,73.60
2023-03-23T01:44:26.586Z,73.91
2023-03-23T01:45:26.587Z,74.32
2023-03-23T01:47:01.284Z,74.32
2023-03-23T01:47:27.736Z,73.91
2023-03-23T01:48:27.781Z,73.91
2023-03-23T01:49:27.678Z,73.50
2023-03-23T01:50:28.371Z,74.18
2023-03-23T01:51:36.676Z,73.50
2023-03-23T01:52:29.639Z,73.71
2023-03-23T01:53:27.675Z,74.21
2023-03-23T01:54:27.653Z,73.80
2023-03-23T01:55:27.634Z,74.58
2023-03-23T01:56:27.678Z,74.72
2023-03-23T01:57:27.610Z,74.32
2023-03-23T01:58:27.677Z,73.91
2023-03-23T01:59:27.602Z,74.72
2023-03-23T02:00:27.632Z,74.41
2023-03-23T02:01:27.603Z,74.72
2023-03-23T02:02:27.576Z,75.02
2023-03-23T02:03:27.591Z,75.54
2023-03-23T02:04:27.609Z,75.54
2023-03-23T02:05:27.597Z,76.25
2023-03-23T02:06:27.560Z,76.65
2023-03-23T02:07:27.565Z,77.91
2023-03-23T02:08:27.578Z,78.12
2023-03-23T02:09:27.529Z,77.51
2023-03-23T02:10:27.537Z,78.93
2023-03-23T02:11:27.503Z,80.19
2023-03-23T02:12:27.523Z,79.17
2023-03-23T02:13:27.503Z,80.29
2023-03-23T02:14:27.654Z,78.97
2023-03-23T02:15:27.459Z,80.19
2023-03-23T02:16:27.517Z,80.09
2023-03-23T02:17:27.482Z,79.17
2023-03-23T02:18:27.466Z,79.17
2023-03-23T02:19:27.437Z,79.48
2023-03-23T02:20:27.449Z,79.99
2023-03-23T02:21:27.428Z,80.29
2023-03-23T02:22:27.408Z,80.19
2023-03-23T02:23:27.474Z,80.09
2023-03-23T02:24:27.435Z,80.50
2023-03-23T02:25:27.447Z,80.09
2023-03-23T02:26:27.370Z,80.54
2023-03-23T02:27:27.364Z,80.94
2023-03-23T02:28:27.434Z,80.64
2023-03-23T02:29:27.352Z,80.43
2023-03-23T02:30:27.404Z,80.54
2023-03-23T02:31:27.354Z,80.33
2023-03-23T02:32:27.351Z,80.74
2023-03-23T02:33:27.362Z,80.74
2023-03-23T02:34:27.315Z,81.04
2023-03-23T02:35:27.338Z,80.84
2023-03-23T02:36:27.323Z,81.25
2023-03-23T02:37:27.303Z,81.15
2023-03-23T02:38:27.328Z,81.15
2023-03-23T02:39:27.278Z,81.35
2023-03-23T02:40:27.260Z,81.66
2023-03-23T02:41:27.261Z,82.88
2023-03-23T02:42:27.352Z,83.33
2023-03-23T02:43:27.294Z,83.43
2023-03-23T02:44:28.274Z,84.96
2023-03-23T02:45:27.244Z,84.55
2023-03-23T02:46:27.221Z,84.45
2023-03-23T02:47:27.224Z,83.67
2023-03-23T02:48:27.245Z,84.49
2023-03-23T02:49:27.274Z,83.84
2023-03-23T02:50:27.205Z,83.67
2023-03-23T02:51:27.195Z,83.87
2023-03-23T02:52:27.174Z,84.34
2023-03-23T02:53:27.178Z,83.78
2023-03-23T02:54:27.145Z,84.04
2023-03-23T02:55:28.161Z,84.08
2023-03-23T02:56:27.151Z,83.98
2023-03-23T02:57:40.254Z,84.18
2023-03-23T02:58:28.163Z,83.73
2023-03-23T02:59:27.139Z,84.08
2023-03-23T03:00:27.120Z,84.18
2023-03-23T03:01:27.116Z,83.94
2023-03-23T03:02:27.128Z,84.80
2023-03-23T03:03:27.101Z,84.28
2023-03-23T03:04:27.095Z,84.90
2023-03-23T03:05:27.110Z,83.87
2023-03-23T03:06:27.072Z,83.87
2023-03-23T03:07:27.064Z,83.78
2023-03-23T03:08:27.044Z,84.08
2023-03-23T03:09:27.081Z,83.98
2023-03-23T03:10:27.048Z,84.18
2023-03-23T03:11:27.033Z,84.69
2023-03-23T03:12:27.099Z,84.90
2023-03-23T03:13:29.272Z,85.51
2023-03-23T03:14:27.022Z,86.33
2023-03-23T03:15:27.003Z,85.41
2023-03-23T03:16:27.017Z,86.36
2023-03-23T03:17:27.045Z,86.26
2023-03-23T03:18:26.997Z,85.96
2023-03-23T03:19:26.988Z,86.57
2023-03-23T03:20:26.971Z,86.36
2023-03-23T03:21:26.943Z,86.71
2023-03-23T03:22:26.948Z,87.43
2023-03-23T03:23:26.942Z,87.84
2023-03-23T03:24:26.948Z,87.43
2023-03-23T03:25:26.940Z,87.84
2023-03-23T03:26:26.924Z,88.24
2023-03-23T03:27:26.911Z,88.24
2023-03-23T03:28:26.899Z,88.14
2023-03-23T03:29:26.915Z,88.65
2023-03-23T03:30:26.917Z,88.70
2023-03-23T03:31:26.898Z,88.29
2023-03-23T03:32:26.868Z,88.29
2023-03-23T03:33:26.929Z,88.14
2023-03-23T03:34:26.876Z,88.18
2023-03-23T03:35:26.844Z,88.39
2023-03-23T03:36:26.844Z,88.65
2023-03-23T03:37:26.917Z,88.08
2023-03-23T03:38:26.836Z,88.29
2023-03-23T03:39:26.808Z,88.18
2023-03-23T03:40:26.826Z,88.08
2023-03-23T03:41:26.816Z,88.45
2023-03-23T03:42:26.810Z,89.72
2023-03-23T03:43:26.802Z,90.19
2023-03-23T03:44:27.394Z,90.23
2023-03-23T03:45:26.821Z,90.12
2023-03-23T03:46:26.765Z,90.43
2023-03-23T04:02:53.782Z,90.33
2023-03-23T04:03:53.772Z,90.47
2023-03-23T04:04:53.769Z,90.94
2023-03-23T04:05:58.502Z,91.60
2023-03-23T04:06:54.908Z,91.91
2023-03-23T04:07:54.851Z,92.11
2023-03-23T04:09:07.860Z,92.17
2023-03-23T04:09:55.859Z,92.62
2023-03-23T04:10:54.903Z,93.13
2023-03-23T04:11:55.470Z,93.38
2023-03-23T04:12:54.827Z,93.69
2023-03-23T04:13:54.831Z,95.02
2023-03-23T04:14:54.818Z,94.60
2023-03-23T04:16:07.117Z,94.40
2023-03-23T04:16:55.808Z,95.32
2023-03-23T04:17:54.830Z,95.22
2023-03-23T04:18:54.795Z,95.37
2023-03-23T04:19:54.796Z,96.08
2023-03-23T04:20:54.782Z,95.88
2023-03-23T04:21:55.787Z,96.39
2023-03-23T04:22:54.773Z,96.80
2023-03-23T04:23:54.729Z,96.59
2023-03-23T04:24:56.939Z,96.80
2023-03-23T04:25:54.751Z,97.31
2023-03-23T04:26:54.820Z,97.11
2023-03-23T04:27:57.305Z,97.31
2023-03-23T04:28:54.701Z,97.31
2023-03-23T04:29:54.699Z,97.31
2023-03-23T04:30:55.457Z,97.25
2023-03-23T04:31:54.685Z,97.11
2023-03-23T04:32:54.923Z,97.00
2023-03-23T04:33:58.705Z,97.11
2023-03-23T04:34:56.503Z,97.21
2023-03-23T04:35:55.659Z,97.41
2023-03-23T04:36:56.822Z,97.41
2023-03-23T04:37:54.667Z,97.21
2023-03-23T04:38:54.636Z,97.72
2023-03-23T04:39:54.613Z,97.36
2023-03-23T04:40:54.622Z,97.62
2023-03-23T04:41:54.636Z,98.03
2023-03-23T04:42:54.618Z,97.87
2023-03-23T04:43:54.612Z,98.49
2023-03-23T04:44:54.616Z,98.38
2023-03-23T04:45:54.567Z,98.49
2023-03-23T04:46:54.582Z,98.58
2023-03-23T04:47:54.581Z,98.94
2023-03-23T04:48:54.548Z,99.10
2023-03-23T04:49:54.526Z,99.04
2023-03-23T04:50:55.866Z,98.58
2023-03-23T04:51:55.539Z,99.10
2023-03-23T04:52:54.523Z,99.61
2023-03-23T04:53:54.523Z,99.76
2023-03-23T04:54:54.528Z,99.86
2023-03-23T04:55:54.491Z,99.99
2023-03-23T04:56:54.503Z,99.96
2023-03-23T04:57:54.487Z,99.96
2023-03-23T04:58:54.516Z,99.96
2023-03-23T04:59:54.460Z,99.91
2023-03-23T05:00:54.513Z,99.99
2023-03-23T05:01:54.483Z,99.99
2023-03-23T05:02:55.453Z,99.99
2023-03-23T05:03:55.029Z,99.99
2023-03-23T05:04:54.454Z,99.99
2023-03-23T05:05:54.409Z,99.99
2023-03-23T05:06:54.402Z,99.99
2023-03-23T05:07:58.345Z,99.99
2023-03-23T05:08:54.410Z,99.99
2023-03-23T05:09:54.405Z,99.99
2023-03-23T05:10:54.369Z,99.99
2023-03-23T05:11:54.366Z,99.99
2023-03-23T05:12:54.366Z,99.99
2023-03-23T05:13:54.360Z,99.99
2023-03-23T05:14:54.435Z,99.99
2023-03-23T05:15:54.384Z,99.99
2023-03-23T05:16:54.322Z,99.99
2023-03-23T05:17:54.360Z,99.99
2023-03-23T05:18:54.294Z,99.99
2023-03-23T05:19:54.341Z,99.99
2023-03-23T05:20:54.396Z,99.99
2023-03-23T05:21:54.290Z,99.99
2023-03-23T05:22:54.276Z,99.99
2023-03-23T05:23:54.283Z,99.99
2023-03-23T05:24:54.302Z,99.99
2023-03-23T05:25:54.275Z,99.99
2023-03-23T05:26:54.257Z,99.99
2023-03-23T05:27:54.254Z,99.99
2023-03-23T05:28:54.260Z,99.99
2023-03-23T05:29:54.812Z,99.99
2023-03-23T05:30:54.237Z,99.99
2023-03-23T05:31:54.225Z,99.99
2023-03-23T05:32:54.354Z,99.99
2023-03-23T05:33:54.196Z,99.99
2023-03-23T05:34:54.195Z,99.99
2023-03-23T05:35:54.237Z,99.99
2023-03-23T05:36:54.161Z,99.99
2023-03-23T05:37:54.212Z,99.99
2023-03-23T05:38:54.220Z,99.99
2023-03-23T05:39:54.178Z,99.99
2023-03-23T05:40:54.175Z,99.99
2023-03-23T05:41:54.146Z,99.99
2023-03-23T05:42:54.163Z,99.99
2023-03-23T05:43:54.161Z,99.99
2023-03-23T05:44:54.105Z,99.99
2023-03-23T05:45:54.110Z,99.99
2023-03-23T05:46:54.136Z,99.99
2023-03-23T05:47:55.099Z,99.99
2023-03-23T05:48:54.083Z,99.99
2023-03-23T05:49:54.063Z,99.99
2023-03-23T05:50:54.053Z,99.99
2023-03-23T05:51:54.047Z,99.99
2023-03-23T05:52:54.076Z,99.99
2023-03-23T05:53:54.059Z,99.99
2023-03-23T05:55:26.907Z,99.99
2023-03-23T05:55:54.027Z,99.99
2023-03-23T06:01:42.154Z,99.99
2023-03-23T06:04:08.143Z,99.99
2023-03-23T06:05:08.107Z,99.99
2023-03-23T06:06:08.093Z,99.99
2023-03-23T06:07:08.087Z,99.99
2023-03-23T06:08:08.077Z,99.99
2023-03-23T06:09:09.284Z,99.99
2023-03-23T06:10:09.246Z,99.99
2023-03-23T06:11:09.243Z,99.99
2023-03-23T06:12:09.815Z,99.99
2023-03-23T06:13:09.275Z,99.99
2023-03-23T06:14:09.462Z,99.99
2023-03-23T06:15:09.183Z,99.99
2023-03-23T06:16:09.188Z,99.99
2023-03-23T06:17:09.177Z,99.99
2023-03-23T06:18:09.155Z,99.99
2023-03-23T06:19:09.163Z,99.99
2023-03-23T06:20:09.154Z,99.99
2023-03-23T06:21:09.171Z,99.99
2023-03-23T06:22:10.121Z,99.99
2023-03-23T06:23:09.131Z,99.99
2023-03-23T06:24:09.141Z,99.99
2023-03-23T06:25:09.252Z,99.99
2023-03-23T06:26:09.158Z,99.99
2023-03-23T06:27:09.089Z,99.99
2023-03-23T06:28:09.074Z,99.99
2023-03-23T06:29:09.113Z,99.99
2023-03-23T06:30:09.140Z,99.99
2023-03-23T06:31:09.069Z,99.99
2023-03-23T06:32:09.062Z,99.99
2023-03-23T06:33:09.091Z,99.99
2023-03-23T06:34:09.093Z,99.99
2023-03-23T06:35:09.055Z,99.99
2023-03-23T06:36:09.159Z,99.99
2023-03-23T06:37:09.021Z,99.99
2023-03-23T06:38:09.115Z,99.99
2023-03-23T06:39:09.063Z,99.99
2023-03-23T06:40:09.017Z,99.99
2023-03-23T06:41:09.023Z,99.99
2023-03-23T06:42:08.980Z,99.99
2023-03-23T06:43:09.961Z,99.99
2023-03-23T06:44:08.975Z,99.99
2023-03-23T06:45:08.976Z,99.99
2023-03-23T06:46:08.995Z,99.99
2023-03-23T06:47:08.962Z,99.99
2023-03-23T06:48:08.940Z,99.99
2023-03-23T06:49:08.926Z,99.99
2023-03-23T06:50:08.992Z,99.99
2023-03-23T06:51:08.963Z,99.99
2023-03-23T06:52:08.949Z,99.99
2023-03-23T06:53:08.917Z,99.99
2023-03-23T06:54:08.900Z,99.99
2023-03-23T06:55:08.888Z,99.99
2023-03-23T06:56:08.898Z,99.99
2023-03-23T06:57:08.954Z,99.99
2023-03-23T06:58:08.874Z,99.99
2023-03-23T06:59:08.875Z,99.99
2023-03-23T07:00:09.513Z,99.99
2023-03-23T07:01:09.838Z,99.99
2023-03-23T07:02:08.849Z,99.99
2023-03-23T07:03:08.821Z,99.99
2023-03-23T07:04:08.819Z,99.99
2023-03-23T07:05:08.815Z,99.99
2023-03-23T07:06:08.806Z,99.99
2023-03-23T07:07:40.779Z,99.99
2023-03-23T07:08:09.568Z,99.99
2023-03-23T07:09:08.810Z,99.99
2023-03-23T07:10:08.883Z,99.99
2023-03-23T07:11:08.759Z,99.99
2023-03-23T07:12:08.772Z,98.97
2023-03-23T07:13:08.793Z,97.86
2023-03-23T07:14:08.751Z,97.09
2023-03-23T07:15:08.717Z,96.64
2023-03-23T07:16:09.720Z,95.07
2023-03-23T07:17:08.708Z,94.26
2023-03-23T07:18:08.746Z,94.42
2023-03-23T07:19:08.791Z,94.05
2023-03-23T07:20:08.698Z,94.40
2023-03-23T07:21:08.699Z,93.89
2023-03-23T07:22:08.676Z,95.06
2023-03-23T07:23:08.686Z,95.47
2023-03-23T07:24:08.743Z,95.67
2023-03-23T07:25:08.651Z,95.57
2023-03-23T07:26:08.656Z,95.77
2023-03-23T07:27:08.710Z,94.95
2023-03-23T07:28:08.619Z,94.45
2023-03-23T07:29:08.652Z,95.06
2023-03-23T07:30:08.644Z,94.85
2023-03-23T07:31:08.632Z,95.06
2023-03-23T07:32:08.672Z,95.16
2023-03-23T07:33:08.599Z,94.65
2023-03-23T07:34:08.599Z,94.85
2023-03-23T07:35:09.797Z,94.45
2023-03-23T07:36:08.617Z,93.84
2023-03-23T07:37:08.570Z,93.84
2023-03-23T07:38:08.551Z,93.22
2023-03-23T07:39:09.276Z,92.50
2023-03-23T07:40:08.557Z,92.91
2023-03-23T07:41:08.552Z,92.61
2023-03-23T07:42:08.531Z,92.87
2023-03-23T07:43:08.542Z,92.87
2023-03-23T07:44:08.514Z,92.77
2023-03-23T07:45:08.519Z,93.07
2023-03-23T07:46:08.473Z,91.85
2023-03-23T07:47:08.474Z,92.46
2023-03-23T07:48:15.903Z,92.77
2023-03-23T07:49:36.339Z,92.67
2023-03-23T07:50:08.446Z,93.63
2023-03-23T07:51:41.325Z,93.89
2023-03-23T07:52:09.328Z,93.28
2023-03-23T07:53:08.439Z,93.07
2023-03-23T07:54:09.453Z,93.48
2023-03-23T07:55:08.459Z,93.63
2023-03-23T07:56:08.413Z,93.48
2023-03-23T07:57:08.426Z,93.63
2023-03-23T07:58:08.370Z,93.18
2023-03-23T07:59:08.378Z,93.63
2023-03-23T08:00:08.382Z,93.59
2023-03-23T08:01:08.347Z,92.91
2023-03-23T08:02:08.730Z,92.61
2023-03-23T08:03:08.385Z,92.50
2023-03-23T08:04:08.335Z,92.26
2023-03-23T08:05:41.044Z,92.46
2023-03-23T08:06:08.313Z,92.97
2023-03-23T08:07:08.358Z,92.97
2023-03-23T08:08:08.371Z,92.57
2023-03-23T08:09:08.317Z,92.46
2023-03-23T08:10:08.359Z,91.75
2023-03-23T08:11:08.291Z,92.57
2023-03-23T08:12:08.279Z,91.61
2023-03-23T08:13:08.246Z,91.91
2023-03-23T08:14:08.264Z,91.81
2023-03-23T08:15:08.276Z,91.91
2023-03-23T08:16:08.282Z,91.61
2023-03-23T08:17:08.223Z,91.46
2023-03-23T08:18:08.315Z,90.64
2023-03-23T08:19:08.728Z,91.46
2023-03-23T08:20:08.307Z,90.55
2023-03-23T08:21:08.208Z,89.83
2023-03-23T08:22:08.198Z,91.05
2023-03-23T08:23:08.201Z,89.38
2023-03-23T08:24:08.218Z,89.38
2023-03-23T08:25:08.163Z,89.28
2023-03-23T08:26:08.175Z,88.87
2023-03-23T08:27:08.184Z,89.38
2023-03-23T08:28:08.139Z,89.18
2023-03-23T08:29:08.149Z,88.06
2023-03-23T08:30:08.173Z,88.16
2023-03-23T08:31:08.114Z,87.96
2023-03-23T08:32:08.101Z,87.75
2023-03-23T08:33:40.874Z,87.96
2023-03-23T08:34:08.138Z,87.81
2023-03-23T08:35:08.099Z,88.02
2023-03-23T08:36:08.148Z,88.06
2023-03-23T08:37:08.080Z,87.75
2023-03-23T08:38:08.079Z,87.96
2023-03-23T08:39:08.046Z,87.96
2023-03-23T08:40:08.178Z,88.67
2023-03-23T08:41:08.061Z,88.71
2023-03-23T08:42:08.088Z,88.67
2023-03-23T08:43:08.037Z,88.81
2023-03-23T08:44:08.904Z,88.46
2023-03-23T08:45:08.011Z,89.07
2023-03-23T08:46:08.053Z,89.38
2023-03-23T08:47:08.108Z,88.67
2023-03-23T08:48:07.986Z,88.46
2023-03-23T08:49:07.968Z,88.98
2023-03-23T08:50:08.088Z,88.87
2023-03-23T08:51:07.987Z,89.28
2023-03-23T08:52:07.953Z,89.28
2023-03-23T08:53:07.941Z,89.12
2023-03-23T08:54:07.958Z,88.06
2023-03-23T08:55:07.956Z,88.61
2023-03-23T08:56:07.963Z,88.06
2023-03-23T08:57:07.953Z,88.46
2023-03-23T08:58:07.914Z,87.85
2023-03-23T08:59:07.909Z,88.36
2023-03-23T09:00:07.923Z,88.22
2023-03-23T09:01:07.899Z,87.85
2023-03-23T09:02:08.002Z,88.16
2023-03-23T09:03:07.937Z,87.96
2023-03-23T09:04:07.877Z,88.36
2023-03-23T09:05:07.876Z,87.85
2023-03-23T09:06:07.848Z,88.06
2023-03-23T09:07:07.834Z,88.26
2023-03-23T09:08:07.862Z,87.85
2023-03-23T09:09:07.870Z,87.45
2023-03-23T09:10:07.918Z,87.49
2023-03-23T09:11:07.804Z,88.06
2023-03-23T09:12:07.835Z,88.57
2023-03-23T09:13:07.842Z,87.96
2023-03-23T09:14:07.808Z,87.45
2023-03-23T09:15:07.807Z,87.75
2023-03-23T09:16:07.793Z,87.69
2023-03-23T09:17:07.765Z,87.65
2023-03-23T09:18:07.762Z,87.90
2023-03-23T09:19:07.781Z,87.96
2023-03-23T09:20:07.750Z,86.68
2023-03-23T09:21:07.767Z,86.83
2023-03-23T09:22:08.735Z,87.38
2023-03-23T09:23:07.736Z,86.74
2023-03-23T09:24:07.783Z,86.94
2023-03-23T09:25:09.156Z,86.83
2023-03-23T09:26:07.740Z,87.65
2023-03-23T09:27:07.699Z,86.94
2023-03-23T09:28:07.830Z,87.14
2023-03-23T09:29:07.669Z,87.24
2023-03-23T09:30:08.513Z,86.80
2023-03-23T09:31:07.680Z,87.20
2023-03-23T09:32:07.645Z,87.00
2023-03-23T09:33:07.647Z,86.39
2023-03-23T09:34:07.645Z,86.39
2023-03-23T09:35:07.618Z,86.59
2023-03-23T09:36:07.626Z,87.30
2023-03-23T09:37:07.610Z,87.20
2023-03-23T09:38:07.619Z,86.96
2023-03-23T09:39:07.632Z,87.00
2023-03-23T09:40:07.726Z,87.30
2023-03-23T09:41:07.607Z,86.80
2023-03-23T09:42:07.550Z,87.10
2023-03-23T09:43:07.593Z,86.80
2023-03-23T09:44:07.606Z,86.86
2023-03-23T09:45:07.560Z,87.26
2023-03-23T09:46:07.561Z,86.55
2023-03-23T09:47:07.584Z,86.04
2023-03-23T09:48:08.395Z,85.94
2023-03-23T09:49:07.550Z,85.33
2023-03-23T09:50:07.565Z,85.23
2023-03-23T09:51:07.520Z,85.13
2023-03-23T09:52:07.518Z,85.39
2023-03-23T09:53:07.607Z,84.52
2023-03-23T09:54:07.524Z,84.78
2023-03-23T09:55:07.479Z,85.29
2023-03-23T09:56:07.484Z,83.87
2023-03-23T09:57:07.498Z,83.97
2023-03-23T09:58:07.445Z,84.58
2023-03-23T09:59:07.460Z,84.28
2023-03-23T10:00:07.517Z,84.48
2023-03-23T10:01:07.485Z,84.28
2023-03-23T10:02:07.488Z,84.13
2023-03-23T10:03:07.429Z,84.34
2023-03-23T10:04:07.405Z,83.53
2023-03-23T10:05:07.385Z,83.18
2023-03-23T10:06:07.393Z,83.32
2023-03-23T10:07:07.413Z,83.48
2023-03-23T10:08:07.434Z,82.87
2023-03-23T10:09:07.371Z,83.59
2023-03-23T10:10:07.389Z,83.38
2023-03-23T10:11:07.478Z,83.28
2023-03-23T10:12:07.341Z,83.28
2023-03-23T10:13:07.357Z,83.38
2023-03-23T10:14:07.396Z,83.48
2023-03-23T10:15:07.320Z,83.08
2023-03-23T10:16:07.337Z,82.10
2023-03-23T10:17:07.529Z,82.20
2023-03-23T10:18:07.400Z,83.12
2023-03-23T10:19:07.311Z,83.42
2023-03-23T10:20:07.297Z,83.62
2023-03-23T10:21:07.332Z,83.32
2023-03-23T10:22:07.300Z,83.62
2023-03-23T10:23:07.291Z,83.32
2023-03-23T10:24:07.274Z,84.34
2023-03-23T10:25:07.244Z,84.54
2023-03-23T10:26:07.263Z,84.23
2023-03-23T10:27:07.260Z,84.07
2023-03-23T10:28:07.223Z,84.99
2023-03-23T10:29:07.264Z,84.88
2023-03-23T10:30:07.252Z,85.64
2023-03-23T10:31:07.308Z,85.23
2023-03-23T10:32:07.206Z,85.84
2023-03-23T10:33:07.241Z,85.94
2023-03-23T10:34:07.249Z,87.16
2023-03-23T10:35:07.183Z,86.76
2023-03-23T10:36:07.174Z,87.30
2023-03-23T10:37:07.184Z,87.10
2023-03-23T10:38:07.278Z,87.71
2023-03-23T10:39:07.215Z,87.81
2023-03-23T10:40:07.192Z,88.22
2023-03-23T10:41:07.121Z,88.53
2023-03-23T10:42:07.133Z,89.24
2023-03-23T10:43:07.102Z,89.03
2023-03-23T10:44:07.113Z,89.34
2023-03-23T10:45:07.115Z,89.34
2023-03-23T10:46:07.163Z,90.36
2023-03-23T10:47:07.085Z,89.95
2023-03-23T10:48:07.084Z,90.40
2023-03-23T10:49:07.118Z,90.20
2023-03-23T10:50:07.054Z,90.97
2023-03-23T10:51:07.099Z,90.86
2023-03-23T10:52:07.045Z,88.06
2023-03-23T10:53:07.030Z,89.95
2023-03-23T10:54:07.053Z,90.56
2023-03-23T10:55:07.029Z,90.36
2023-03-23T10:56:07.044Z,90.97
2023-03-23T10:57:07.032Z,91.13
2023-03-23T10:58:07.081Z,90.42
2023-03-23T10:59:07.006Z,90.52
2023-03-23T11:00:06.996Z,89.91
2023-03-23T11:01:06.979Z,89.66
2023-03-23T11:02:07.004Z,90.07
2023-03-23T11:03:07.011Z,89.31
2023-03-23T11:04:07.968Z,87.69
2023-03-23T11:05:09.612Z,87.69
2023-03-23T11:06:08.018Z,86.88
2023-03-23T11:07:06.981Z,86.98
2023-03-23T11:08:06.942Z,88.50
2023-03-23T11:09:06.926Z,86.77
2023-03-23T11:10:06.933Z,87.08
2023-03-23T11:11:06.924Z,87.23
2023-03-23T11:12:06.913Z,87.18
2023-03-23T11:13:06.899Z,87.69
2023-03-23T11:14:06.907Z,86.77
2023-03-23T11:15:06.918Z,87.24
2023-03-23T11:16:06.917Z,85.72
2023-03-23T11:17:15.547Z,85.92
2023-03-23T11:18:08.842Z,85.62
2023-03-23T11:19:07.556Z,85.78
2023-03-23T11:20:06.836Z,85.27
2023-03-23T11:21:07.518Z,85.17
2023-03-23T11:22:06.902Z,85.58
2023-03-23T11:23:06.901Z,84.77
2023-03-23T11:24:09.927Z,84.12
2023-03-23T11:25:07.850Z,83.81
2023-03-23T11:26:06.792Z,83.57
2023-03-23T11:27:06.795Z,83.03
2023-03-23T11:28:06.782Z,80.49
2023-03-23T11:29:06.868Z,80.93
2023-03-23T11:30:06.769Z,80.32
2023-03-23T11:31:06.767Z,81.50
2023-03-23T11:32:06.807Z,80.65
2023-03-23T11:33:06.803Z,80.59
2023-03-23T11:34:06.860Z,79.03
2023-03-23T11:35:16.000Z,78.97
2023-03-23T11:36:08.841Z,78.26
2023-03-23T11:37:06.727Z,79.07
2023-03-23T11:38:06.780Z,79.07
2023-03-23T11:39:06.716Z,79.58
2023-03-23T11:40:06.689Z,79.47
2023-03-23T11:41:06.694Z,79.51
2023-03-23T11:42:09.719Z,79.88
2023-03-23T11:43:07.678Z,79.47
2023-03-23T11:44:06.683Z,79.47
2023-03-23T11:45:06.684Z,80.49
2023-03-23T11:46:06.774Z,80.29
2023-03-23T11:47:06.625Z,79.68
2023-03-23T11:48:06.661Z,79.88
2023-03-23T11:49:15.603Z,79.82
2023-03-23T11:50:08.616Z,80.46
2023-03-23T11:51:07.685Z,80.87
2023-03-23T11:52:06.627Z,82.09
2023-03-23T11:53:06.675Z,80.77
2023-03-23T11:54:06.604Z,81.18
2023-03-23T11:55:06.550Z,81.88
2023-03-23T11:56:06.589Z,82.03
2023-03-23T11:57:06.603Z,82.43
2023-03-23T11:58:06.578Z,81.96
2023-03-23T11:59:06.560Z,83.08
2023-03-23T12:00:06.618Z,82.78
2023-03-23T12:01:06.563Z,83.62
2023-03-23T12:02:16.889Z,83.56
2023-03-23T12:03:08.534Z,84.34
2023-03-23T12:04:06.501Z,83.62
2023-03-23T12:05:06.530Z,84.03
2023-03-23T12:06:06.498Z,83.83
2023-03-23T12:07:06.468Z,83.83
2023-03-23T12:08:06.469Z,83.42
2023-03-23T12:09:06.491Z,83.36
2023-03-23T12:10:06.461Z,83.73
2023-03-23T12:11:38.867Z,84.68
2023-03-23T12:12:06.426Z,84.84
2023-03-23T12:13:06.439Z,84.88
2023-03-23T12:14:06.419Z,84.17
2023-03-23T12:15:07.066Z,84.78
2023-03-23T12:16:06.399Z,84.38
2023-03-23T12:17:06.425Z,83.56
2023-03-23T12:18:06.413Z,82.31
2023-03-23T12:19:06.405Z,82.20
2023-03-23T12:20:06.387Z,82.20
2023-03-23T12:21:06.383Z,83.42
2023-03-23T12:22:06.391Z,83.42
2023-03-23T12:23:06.335Z,83.93
2023-03-23T12:24:06.479Z,83.87
2023-03-23T12:25:06.347Z,84.88
2023-03-23T12:26:06.351Z,84.99
2023-03-23T12:27:06.323Z,84.58
2023-03-23T12:28:06.328Z,84.99
2023-03-23T12:29:06.332Z,84.82
2023-03-23T12:30:06.303Z,84.92
2023-03-23T12:31:06.392Z,85.64
2023-03-23T12:32:06.290Z,84.52
2023-03-23T12:33:06.344Z,84.82
2023-03-23T12:34:06.336Z,84.11
2023-03-23T12:35:06.285Z,84.42
2023-03-23T12:36:06.325Z,84.62
2023-03-23T12:37:06.260Z,84.21
2023-03-23T12:38:06.260Z,84.17
2023-03-23T12:39:06.314Z,84.88
2023-03-23T12:40:06.234Z,84.78
2023-03-23T12:41:06.236Z,84.58
2023-03-23T12:42:07.414Z,84.38
2023-03-23T12:43:06.208Z,82.65
2023-03-23T12:44:06.185Z,83.36
2023-03-23T12:45:06.213Z,83.67
2023-03-23T12:46:06.186Z,83.46
2023-03-23T12:47:06.272Z,83.76
2023-03-23T12:48:06.171Z,82.75
2023-03-23T12:49:06.171Z,83.26
2023-03-23T12:50:06.139Z,83.42
2023-03-23T12:51:06.132Z,83.12
2023-03-23T12:52:06.114Z,83.22
2023-03-23T12:53:06.133Z,82.95
2023-03-23T12:54:06.181Z,83.26
2023-03-23T12:55:06.153Z,82.95
2023-03-23T12:56:06.111Z,82.85
2023-03-23T12:57:06.130Z,83.36
2023-03-23T12:58:06.190Z,82.14
2023-03-23T12:59:06.120Z,82.54
2023-03-23T13:00:06.121Z,82.95
2023-03-23T13:01:06.086Z,83.56
2023-03-23T13:02:06.090Z,83.40
2023-03-23T13:03:06.076Z,83.36
2023-03-23T13:04:06.046Z,83.50
2023-03-23T13:05:06.161Z,82.68
2023-03-23T13:06:06.042Z,82.95
2023-03-23T13:07:06.072Z,83.60
2023-03-23T13:08:06.011Z,83.76
2023-03-23T13:09:06.019Z,83.56
2023-03-23T13:10:06.267Z,82.79
2023-03-23T13:11:06.016Z,82.99
2023-03-23T13:12:07.015Z,83.56
2023-03-23T13:13:05.978Z,83.70
2023-03-23T13:14:05.968Z,83.91
2023-03-23T13:15:05.952Z,82.79